East Calder, United Kingdom
Current Conditions -  °F | °C
As of 9:20 AM on Friday 24 Oct 2014 (Local Time) from EGPH Reporting Station
Rain Showers Rain Showers  
Wind Chill: 42°   Ceiling: 4400
Heat Index: 48°   Visibility: 5mi
Dew Point: 45°   Wind: 15mph
Humidity: 87%   Direction: 220°SW
Pressure: 29.77"   Gusts: NA
Location:  55.89°N, 3.46°W
Report Text: EGPH 240820Z 22013KT 8000 -SHRA SCT037 BKN044 09/07 Q1008
Loading
Personal Weather Stations






























Interactive Weather Map
Tropical Storm Tracking
New forecast layout! Learn more

10-Day Weather Forecast

Advertisements
Track Severe Weather on mobile